sensor_id;sensor_type;location;lat;lon;timestamp;P1;durP1;ratioP1;P2;durP2;ratioP2
28529;SDS011;15737;49.760;6.632;2023-06-26T00:02:17;2.17;;;1.80;;
28529;SDS011;15737;49.760;6.632;2023-06-26T00:04:43;1.90;;;1.70;;
28529;SDS011;15737;49.760;6.632;2023-06-26T00:07:09;2.50;;;2.07;;
28529;SDS011;15737;49.760;6.632;2023-06-26T00:09:35;3.13;;;1.90;;
28529;SDS011;15737;49.760;6.632;2023-06-26T00:12:01;3.47;;;1.90;;
28529;SDS011;15737;49.760;6.632;2023-06-26T00:14:27;2.23;;;1.90;;
28529;SDS011;15737;49.760;6.632;2023-06-26T00:16:52;1.85;;;1.70;;
28529;SDS011;15737;49.760;6.632;2023-06-26T00:19:18;2.20;;;1.97;;
28529;SDS011;15737;49.760;6.632;2023-06-26T00:21:44;3.27;;;2.10;;
28529;SDS011;15737;49.760;6.632;2023-06-26T00:24:11;1.73;;;1.48;;
28529;SDS011;15737;49.760;6.632;2023-06-26T00:26:37;2.40;;;1.87;;
28529;SDS011;15737;49.760;6.632;2023-06-26T00:29:03;2.17;;;1.80;;
28529;SDS011;15737;49.760;6.632;2023-06-26T00:31:28;1.77;;;1.60;;
28529;SDS011;15737;49.760;6.632;2023-06-26T00:33:54;1.98;;;1.73;;
28529;SDS011;15737;49.760;6.632;2023-06-26T00:36:19;1.53;;;1.43;;
28529;SDS011;15737;49.760;6.632;2023-06-26T00:38:47;2.00;;;1.63;;
28529;SDS011;15737;49.760;6.632;2023-06-26T00:41:13;2.30;;;1.63;;
28529;SDS011;15737;49.760;6.632;2023-06-26T00:43:39;2.20;;;2.00;;
28529;SDS011;15737;49.760;6.632;2023-06-26T00:46:05;1.90;;;1.70;;
28529;SDS011;15737;49.760;6.632;2023-06-26T00:48:34;2.40;;;1.73;;
28529;SDS011;15737;49.760;6.632;2023-06-26T00:53:30;2.33;;;1.90;;
28529;SDS011;15737;49.760;6.632;2023-06-26T00:55:57;2.40;;;1.93;;
28529;SDS011;15737;49.760;6.632;2023-06-26T00:58:23;3.00;;;2.47;;
28529;SDS011;15737;49.760;6.632;2023-06-26T01:00:50;1.90;;;1.63;;
28529;SDS011;15737;49.760;6.632;2023-06-26T01:03:16;2.23;;;2.03;;
28529;SDS011;15737;49.760;6.632;2023-06-26T01:05:42;1.50;;;1.40;;
28529;SDS011;15737;49.760;6.632;2023-06-26T01:08:10;2.00;;;1.90;;
28529;SDS011;15737;49.760;6.632;2023-06-26T01:10:37;4.00;;;2.03;;
28529;SDS011;15737;49.760;6.632;2023-06-26T01:13:03;2.43;;;2.23;;
28529;SDS011;15737;49.760;6.632;2023-06-26T01:15:29;2.47;;;1.90;;
28529;SDS011;15737;49.760;6.632;2023-06-26T01:17:55;3.60;;;1.90;;
28529;SDS011;15737;49.760;6.632;2023-06-26T01:20:24;3.90;;;2.00;;
28529;SDS011;15737;49.760;6.632;2023-06-26T01:28:34;2.23;;;2.03;;
28529;SDS011;15737;49.760;6.632;2023-06-26T01:31:02;2.03;;;1.80;;
28529;SDS011;15737;49.760;6.632;2023-06-26T01:33:29;2.07;;;1.87;;
28529;SDS011;15737;49.760;6.632;2023-06-26T01:35:55;3.17;;;2.30;;
28529;SDS011;15737;49.760;6.632;2023-06-26T01:38:21;2.20;;;1.53;;
28529;SDS011;15737;49.760;6.632;2023-06-26T01:40:50;2.90;;;1.80;;
28529;SDS011;15737;49.760;6.632;2023-06-26T01:43:27;2.67;;;1.83;;
28529;SDS011;15737;49.760;6.632;2023-06-26T01:45:55;3.20;;;2.07;;
28529;SDS011;15737;49.760;6.632;2023-06-26T01:48:35;2.63;;;1.90;;
28529;SDS011;15737;49.760;6.632;2023-06-26T01:51:09;4.60;;;2.00;;
28529;SDS011;15737;49.760;6.632;2023-06-26T01:53:36;2.63;;;2.00;;
28529;SDS011;15737;49.760;6.632;2023-06-26T01:56:07;1.90;;;1.80;;
28529;SDS011;15737;49.760;6.632;2023-06-26T01:58:37;2.23;;;2.00;;
28529;SDS011;15737;49.760;6.632;2023-06-26T02:01:08;2.00;;;1.70;;
28529;SDS011;15737;49.760;6.632;2023-06-26T02:03:33;2.00;;;1.80;;
28529;SDS011;15737;49.760;6.632;2023-06-26T02:05:59;2.80;;;2.30;;
28529;SDS011;15737;49.760;6.632;2023-06-26T02:08:25;2.63;;;2.30;;
28529;SDS011;15737;49.760;6.632;2023-06-26T02:10:50;2.40;;;1.73;;
28529;SDS011;15737;49.760;6.632;2023-06-26T02:13:16;3.73;;;2.33;;
28529;SDS011;15737;49.760;6.632;2023-06-26T02:15:41;2.30;;;1.57;;
28529;SDS011;15737;49.760;6.632;2023-06-26T02:18:07;3.13;;;1.70;;
28529;SDS011;15737;49.760;6.632;2023-06-26T02:20:32;2.03;;;1.87;;
28529;SDS011;15737;49.760;6.632;2023-06-26T02:22:58;1.97;;;1.80;;
28529;SDS011;15737;49.760;6.632;2023-06-26T02:25:24;2.67;;;2.10;;
28529;SDS011;15737;49.760;6.632;2023-06-26T02:27:49;2.93;;;2.40;;
28529;SDS011;15737;49.760;6.632;2023-06-26T02:30:15;2.93;;;2.20;;
28529;SDS011;15737;49.760;6.632;2023-06-26T02:32:40;3.00;;;1.83;;
28529;SDS011;15737;49.760;6.632;2023-06-26T02:35:06;2.47;;;2.17;;
28529;SDS011;15737;49.760;6.632;2023-06-26T02:37:32;2.07;;;1.67;;
28529;SDS011;15737;49.760;6.632;2023-06-26T02:39:57;2.13;;;1.97;;
28529;SDS011;15737;49.760;6.632;2023-06-26T02:42:23;3.17;;;2.27;;
28529;SDS011;15737;49.760;6.632;2023-06-26T02:44:48;4.70;;;2.00;;
28529;SDS011;15737;49.760;6.632;2023-06-26T02:47:14;3.70;;;2.17;;
28529;SDS011;15737;49.760;6.632;2023-06-26T02:49:39;1.77;;;1.67;;
28529;SDS011;15737;49.760;6.632;2023-06-26T02:52:05;2.70;;;2.10;;
28529;SDS011;15737;49.760;6.632;2023-06-26T02:54:31;2.27;;;2.07;;
28529;SDS011;15737;49.760;6.632;2023-06-26T02:56:57;2.30;;;1.93;;
28529;SDS011;15737;49.760;6.632;2023-06-26T02:59:24;2.60;;;2.40;;
28529;SDS011;15737;49.760;6.632;2023-06-26T03:01:49;2.70;;;1.77;;
28529;SDS011;15737;49.760;6.632;2023-06-26T03:04:15;2.70;;;2.07;;
28529;SDS011;15737;49.760;6.632;2023-06-26T03:06:42;1.70;;;1.60;;
28529;SDS011;15737;49.760;6.632;2023-06-26T03:09:08;2.43;;;2.20;;
28529;SDS011;15737;49.760;6.632;2023-06-26T03:11:34;2.13;;;1.77;;
28529;SDS011;15737;49.760;6.632;2023-06-26T03:13:59;1.93;;;1.83;;
28529;SDS011;15737;49.760;6.632;2023-06-26T03:16:24;3.93;;;2.60;;
28529;SDS011;15737;49.760;6.632;2023-06-26T03:18:50;2.17;;;1.90;;
28529;SDS011;15737;49.760;6.632;2023-06-26T03:21:16;2.03;;;1.80;;
28529;SDS011;15737;49.760;6.632;2023-06-26T03:23:42;3.20;;;2.23;;
28529;SDS011;15737;49.760;6.632;2023-06-26T03:26:07;1.77;;;1.60;;
28529;SDS011;15737;49.760;6.632;2023-06-26T03:28:33;2.37;;;1.87;;
28529;SDS011;15737;49.760;6.632;2023-06-26T03:30:59;3.73;;;2.17;;
28529;SDS011;15737;49.760;6.632;2023-06-26T03:33:24;3.33;;;2.33;;
28529;SDS011;15737;49.760;6.632;2023-06-26T03:35:50;2.80;;;2.20;;
28529;SDS011;15737;49.760;6.632;2023-06-26T03:38:15;3.17;;;1.83;;
28529;SDS011;15737;49.760;6.632;2023-06-26T03:40:41;2.57;;;2.37;;
28529;SDS011;15737;49.760;6.632;2023-06-26T03:43:06;2.83;;;2.53;;
28529;SDS011;15737;49.760;6.632;2023-06-26T03:45:32;2.53;;;2.30;;
28529;SDS011;15737;49.760;6.632;2023-06-26T03:47:57;3.37;;;2.50;;
28529;SDS011;15737;49.760;6.632;2023-06-26T03:50:23;2.67;;;2.47;;
28529;SDS011;15737;49.760;6.632;2023-06-26T03:52:48;2.87;;;2.67;;
28529;SDS011;15737;49.760;6.632;2023-06-26T03:55:15;2.70;;;2.50;;
28529;SDS011;15737;49.760;6.632;2023-06-26T03:57:41;3.60;;;2.43;;
28529;SDS011;15737;49.760;6.632;2023-06-26T04:00:06;3.13;;;2.83;;
28529;SDS011;15737;49.760;6.632;2023-06-26T04:02:33;3.83;;;2.60;;
28529;SDS011;15737;49.760;6.632;2023-06-26T04:04:59;3.13;;;2.80;;
28529;SDS011;15737;49.760;6.632;2023-06-26T04:07:25;3.53;;;2.83;;
28529;SDS011;15737;49.760;6.632;2023-06-26T04:09:51;3.60;;;2.83;;
28529;SDS011;15737;49.760;6.632;2023-06-26T04:12:16;3.13;;;2.83;;
28529;SDS011;15737;49.760;6.632;2023-06-26T04:14:42;2.97;;;2.63;;
28529;SDS011;15737;49.760;6.632;2023-06-26T04:17:07;3.27;;;2.97;;
28529;SDS011;15737;49.760;6.632;2023-06-26T04:19:33;3.90;;;3.17;;
28529;SDS011;15737;49.760;6.632;2023-06-26T04:22:00;5.30;;;4.83;;
28529;SDS011;15737;49.760;6.632;2023-06-26T04:24:26;2.57;;;2.37;;
28529;SDS011;15737;49.760;6.632;2023-06-26T04:26:51;4.53;;;4.20;;
28529;SDS011;15737;49.760;6.632;2023-06-26T04:29:17;6.97;;;3.77;;
28529;SDS011;15737;49.760;6.632;2023-06-26T04:31:42;3.58;;;3.28;;
28529;SDS011;15737;49.760;6.632;2023-06-26T04:34:12;3.80;;;2.65;;
28529;SDS011;15737;49.760;6.632;2023-06-26T04:36:38;3.88;;;2.30;;
28529;SDS011;15737;49.760;6.632;2023-06-26T04:39:04;3.45;;;2.28;;
28529;SDS011;15737;49.760;6.632;2023-06-26T04:41:30;3.67;;;2.40;;
28529;SDS011;15737;49.760;6.632;2023-06-26T04:43:55;2.78;;;2.35;;
28529;SDS011;15737;49.760;6.632;2023-06-26T04:46:21;2.83;;;2.22;;
28529;SDS011;15737;49.760;6.632;2023-06-26T04:48:46;3.08;;;2.50;;
28529;SDS011;15737;49.760;6.632;2023-06-26T04:51:12;2.83;;;2.20;;
28529;SDS011;15737;49.760;6.632;2023-06-26T04:53:37;3.17;;;2.67;;
28529;SDS011;15737;49.760;6.632;2023-06-26T04:56:04;2.20;;;2.00;;
28529;SDS011;15737;49.760;6.632;2023-06-26T04:58:29;3.55;;;2.35;;
28529;SDS011;15737;49.760;6.632;2023-06-26T05:00:55;2.22;;;2.08;;
28529;SDS011;15737;49.760;6.632;2023-06-26T05:03:21;2.60;;;2.40;;
28529;SDS011;15737;49.760;6.632;2023-06-26T05:05:47;3.55;;;2.72;;
28529;SDS011;15737;49.760;6.632;2023-06-26T05:08:17;3.72;;;2.58;;
28529;SDS011;15737;49.760;6.632;2023-06-26T05:10:45;2.97;;;2.40;;
28529;SDS011;15737;49.760;6.632;2023-06-26T05:13:11;2.85;;;2.40;;
28529;SDS011;15737;49.760;6.632;2023-06-26T05:15:40;2.88;;;2.20;;
28529;SDS011;15737;49.760;6.632;2023-06-26T05:18:07;2.92;;;2.65;;
28529;SDS011;15737;49.760;6.632;2023-06-26T05:20:33;2.97;;;2.40;;
28529;SDS011;15737;49.760;6.632;2023-06-26T05:22:59;2.42;;;2.22;;
28529;SDS011;15737;49.760;6.632;2023-06-26T05:25:26;5.38;;;2.30;;
28529;SDS011;15737;49.760;6.632;2023-06-26T05:27:54;2.95;;;2.65;;
28529;SDS011;15737;49.760;6.632;2023-06-26T05:32:50;3.28;;;2.83;;
28529;SDS011;15737;49.760;6.632;2023-06-26T05:35:16;2.53;;;2.33;;
28529;SDS011;15737;49.760;6.632;2023-06-26T05:37:43;3.70;;;2.92;;
28529;SDS011;15737;49.760;6.632;2023-06-26T05:40:09;2.60;;;2.20;;
28529;SDS011;15737;49.760;6.632;2023-06-26T05:42:35;3.83;;;2.70;;
28529;SDS011;15737;49.760;6.632;2023-06-26T05:45:01;3.30;;;2.83;;
28529;SDS011;15737;49.760;6.632;2023-06-26T05:47:27;3.35;;;2.95;;
28529;SDS011;15737;49.760;6.632;2023-06-26T05:49:52;4.15;;;2.85;;
28529;SDS011;15737;49.760;6.632;2023-06-26T05:52:18;3.00;;;2.65;;
28529;SDS011;15737;49.760;6.632;2023-06-26T05:54:44;4.20;;;3.08;;
28529;SDS011;15737;49.760;6.632;2023-06-26T05:57:09;4.78;;;3.08;;
28529;SDS011;15737;49.760;6.632;2023-06-26T05:59:36;2.47;;;2.28;;
28529;SDS011;15737;49.760;6.632;2023-06-26T06:02:04;2.47;;;2.28;;
28529;SDS011;15737;49.760;6.632;2023-06-26T06:04:29;3.03;;;2.53;;
28529;SDS011;15737;49.760;6.632;2023-06-26T06:06:55;3.28;;;2.30;;
28529;SDS011;15737;49.760;6.632;2023-06-26T06:09:21;2.95;;;2.33;;
28529;SDS011;15737;49.760;6.632;2023-06-26T06:11:46;2.65;;;2.17;;
28529;SDS011;15737;49.760;6.632;2023-06-26T06:14:12;2.20;;;2.00;;
28529;SDS011;15737;49.760;6.632;2023-06-26T06:16:37;2.78;;;1.65;;
28529;SDS011;15737;49.760;6.632;2023-06-26T06:19:03;1.70;;;1.52;;
28529;SDS011;15737;49.760;6.632;2023-06-26T06:21:31;2.72;;;2.00;;
28529;SDS011;15737;49.760;6.632;2023-06-26T06:23:57;2.13;;;1.90;;
28529;SDS011;15737;49.760;6.632;2023-06-26T06:26:22;2.85;;;2.20;;
28529;SDS011;15737;49.760;6.632;2023-06-26T06:28:48;1.85;;;1.75;;
28529;SDS011;15737;49.760;6.632;2023-06-26T06:31:14;2.75;;;2.50;;
28529;SDS011;15737;49.760;6.632;2023-06-26T06:33:39;1.98;;;1.88;;
28529;SDS011;15737;49.760;6.632;2023-06-26T06:36:05;2.25;;;1.90;;
28529;SDS011;15737;49.760;6.632;2023-06-26T06:38:30;3.22;;;2.15;;
28529;SDS011;15737;49.760;6.632;2023-06-26T06:40:56;1.80;;;1.70;;
28529;SDS011;15737;49.760;6.632;2023-06-26T06:43:22;1.88;;;1.50;;
28529;SDS011;15737;49.760;6.632;2023-06-26T06:45:47;1.80;;;1.70;;
28529;SDS011;15737;49.760;6.632;2023-06-26T06:48:13;2.22;;;1.98;;
28529;SDS011;15737;49.760;6.632;2023-06-26T06:50:38;1.80;;;1.70;;
28529;SDS011;15737;49.760;6.632;2023-06-26T06:53:07;2.53;;;1.88;;
28529;SDS011;15737;49.760;6.632;2023-06-26T06:55:47;2.22;;;1.65;;
28529;SDS011;15737;49.760;6.632;2023-06-26T06:58:26;1.60;;;1.50;;
28529;SDS011;15737;49.760;6.632;2023-06-26T07:01:06;1.95;;;1.58;;
28529;SDS011;15737;49.760;6.632;2023-06-26T07:08:56;1.13;;;1.02;;
28529;SDS011;15737;49.760;6.632;2023-06-26T07:11:36;1.60;;;1.17;;
28529;SDS011;15737;49.760;6.632;2023-06-26T07:14:17;1.45;;;1.15;;
28529;SDS011;15737;49.760;6.632;2023-06-26T07:16:59;1.77;;;1.30;;
28529;SDS011;15737;49.760;6.632;2023-06-26T07:19:38;1.33;;;1.23;;
28529;SDS011;15737;49.760;6.632;2023-06-26T07:22:03;1.60;;;1.13;;
28529;SDS011;15737;49.760;6.632;2023-06-26T07:24:29;1.33;;;1.23;;
28529;SDS011;15737;49.760;6.632;2023-06-26T07:26:54;1.73;;;0.93;;
28529;SDS011;15737;49.760;6.632;2023-06-26T07:29:20;1.35;;;1.20;;
28529;SDS011;15737;49.760;6.632;2023-06-26T07:31:45;1.45;;;1.30;;
28529;SDS011;15737;49.760;6.632;2023-06-26T07:34:17;0.82;;;0.82;;
28529;SDS011;15737;49.760;6.632;2023-06-26T07:36:57;1.15;;;1.05;;
28529;SDS011;15737;49.760;6.632;2023-06-26T07:39:23;1.70;;;1.25;;
28529;SDS011;15737;49.760;6.632;2023-06-26T07:41:48;1.38;;;1.08;;
28529;SDS011;15737;49.760;6.632;2023-06-26T07:44:17;1.02;;;0.93;;
28529;SDS011;15737;49.760;6.632;2023-06-26T07:46:56;1.08;;;0.98;;
28529;SDS011;15737;49.760;6.632;2023-06-26T07:49:49;2.05;;;1.27;;
28529;SDS011;15737;49.760;6.632;2023-06-26T07:52:15;1.05;;;1.00;;
28529;SDS011;15737;49.760;6.632;2023-06-26T07:54:41;1.30;;;1.20;;
28529;SDS011;15737;49.760;6.632;2023-06-26T07:57:06;1.40;;;1.30;;
28529;SDS011;15737;49.760;6.632;2023-06-26T07:59:32;2.05;;;1.20;;
28529;SDS011;15737;49.760;6.632;2023-06-26T08:01:58;0.75;;;0.75;;
28529;SDS011;15737;49.760;6.632;2023-06-26T08:04:24;1.30;;;1.05;;
28529;SDS011;15737;49.760;6.632;2023-06-26T08:06:55;1.42;;;1.10;;
28529;SDS011;15737;49.760;6.632;2023-06-26T08:09:22;1.23;;;1.10;;
28529;SDS011;15737;49.760;6.632;2023-06-26T08:11:49;1.08;;;1.08;;
28529;SDS011;15737;49.760;6.632;2023-06-26T08:14:32;1.00;;;0.90;;
28529;SDS011;15737;49.760;6.632;2023-06-26T08:17:13;0.98;;;0.98;;
28529;SDS011;15737;49.760;6.632;2023-06-26T08:19:41;1.33;;;0.95;;
28529;SDS011;15737;49.760;6.632;2023-06-26T08:22:07;1.00;;;1.00;;
28529;SDS011;15737;49.760;6.632;2023-06-26T08:24:32;0.90;;;0.90;;
28529;SDS011;15737;49.760;6.632;2023-06-26T08:26:58;0.90;;;0.90;;
28529;SDS011;15737;49.760;6.632;2023-06-26T08:29:25;0.90;;;0.90;;
28529;SDS011;15737;49.760;6.632;2023-06-26T08:32:07;0.93;;;0.80;;
28529;SDS011;15737;49.760;6.632;2023-06-26T08:34:49;2.72;;;1.02;;
28529;SDS011;15737;49.760;6.632;2023-06-26T08:37:30;0.60;;;0.60;;
28529;SDS011;15737;49.760;6.632;2023-06-26T08:40:12;0.93;;;0.85;;
28529;SDS011;15737;49.760;6.632;2023-06-26T08:42:59;1.17;;;1.08;;
28529;SDS011;15737;49.760;6.632;2023-06-26T08:45:37;0.77;;;0.73;;
28529;SDS011;15737;49.760;6.632;2023-06-26T08:48:18;1.02;;;0.95;;
28529;SDS011;15737;49.760;6.632;2023-06-26T08:50:57;0.73;;;0.73;;
28529;SDS011;15737;49.760;6.632;2023-06-26T08:56:46;0.75;;;0.75;;
28529;SDS011;15737;49.760;6.632;2023-06-26T08:59:25;0.88;;;0.88;;
28529;SDS011;15737;49.760;6.632;2023-06-26T09:02:04;0.93;;;0.93;;
28529;SDS011;15737;49.760;6.632;2023-06-26T09:04:43;0.60;;;0.60;;
28529;SDS011;15737;49.760;6.632;2023-06-26T09:07:24;1.25;;;1.10;;
28529;SDS011;15737;49.760;6.632;2023-06-26T09:10:06;1.08;;;0.98;;
28529;SDS011;15737;49.760;6.632;2023-06-26T09:18:01;1.50;;;1.10;;
28529;SDS011;15737;49.760;6.632;2023-06-26T09:20:40;0.90;;;0.90;;
28529;SDS011;15737;49.760;6.632;2023-06-26T09:23:20;1.15;;;1.00;;
28529;SDS011;15737;49.760;6.632;2023-06-26T09:26:03;2.75;;;1.38;;
28529;SDS011;15737;49.760;6.632;2023-06-26T09:28:44;1.02;;;1.02;;
28529;SDS011;15737;49.760;6.632;2023-06-26T09:31:24;3.80;;;1.30;;
28529;SDS011;15737;49.760;6.632;2023-06-26T09:34:03;1.08;;;0.88;;
28529;SDS011;15737;49.760;6.632;2023-06-26T09:36:41;2.50;;;1.40;;
28529;SDS011;15737;49.760;6.632;2023-06-26T09:39:22;1.10;;;0.93;;
28529;SDS011;15737;49.760;6.632;2023-06-26T09:42:01;1.63;;;0.90;;
28529;SDS011;15737;49.760;6.632;2023-06-26T09:44:36;1.33;;;1.13;;
28529;SDS011;15737;49.760;6.632;2023-06-26T09:47:18;1.17;;;1.08;;
28529;SDS011;15737;49.760;6.632;2023-06-26T09:49:57;0.82;;;0.82;;
28529;SDS011;15737;49.760;6.632;2023-06-26T09:52:36;1.95;;;1.20;;
28529;SDS011;15737;49.760;6.632;2023-06-26T09:55:15;1.13;;;1.00;;
28529;SDS011;15737;49.760;6.632;2023-06-26T09:57:58;1.25;;;1.10;;
28529;SDS011;15737;49.760;6.632;2023-06-26T10:00:34;1.27;;;1.17;;
28529;SDS011;15737;49.760;6.632;2023-06-26T10:03:04;1.00;;;0.90;;
28529;SDS011;15737;49.760;6.632;2023-06-26T10:05:30;1.20;;;1.02;;
28529;SDS011;15737;49.760;6.632;2023-06-26T10:07:55;1.60;;;1.30;;
28529;SDS011;15737;49.760;6.632;2023-06-26T10:10:22;1.40;;;0.93;;
28529;SDS011;15737;49.760;6.632;2023-06-26T10:12:50;1.13;;;0.85;;
28529;SDS011;15737;49.760;6.632;2023-06-26T10:15:20;1.30;;;1.00;;
28529;SDS011;15737;49.760;6.632;2023-06-26T10:17:48;0.88;;;0.88;;
28529;SDS011;15737;49.760;6.632;2023-06-26T10:20:17;0.90;;;0.90;;
28529;SDS011;15737;49.760;6.632;2023-06-26T10:22:44;0.80;;;0.80;;
28529;SDS011;15737;49.760;6.632;2023-06-26T10:25:11;0.90;;;0.80;;
28529;SDS011;15737;49.760;6.632;2023-06-26T10:27:44;0.93;;;0.90;;
28529;SDS011;15737;49.760;6.632;2023-06-26T10:30:15;0.93;;;0.82;;
28529;SDS011;15737;49.760;6.632;2023-06-26T10:32:44;0.82;;;0.82;;
28529;SDS011;15737;49.760;6.632;2023-06-26T10:35:10;1.65;;;0.80;;
28529;SDS011;15737;49.760;6.632;2023-06-26T10:37:43;2.00;;;0.88;;
28529;SDS011;15737;49.760;6.632;2023-06-26T10:40:13;0.63;;;0.63;;
28529;SDS011;15737;49.760;6.632;2023-06-26T10:42:45;3.10;;;0.75;;
28529;SDS011;15737;49.760;6.632;2023-06-26T10:45:14;0.88;;;0.88;;
28529;SDS011;15737;49.760;6.632;2023-06-26T10:47:42;1.48;;;1.13;;
28529;SDS011;15737;49.760;6.632;2023-06-26T10:50:24;1.05;;;1.00;;
28529;SDS011;15737;49.760;6.632;2023-06-26T10:55:57;2.60;;;0.77;;
28529;SDS011;15737;49.760;6.632;2023-06-26T10:58:31;0.60;;;0.60;;
28529;SDS011;15737;49.760;6.632;2023-06-26T11:03:47;0.88;;;0.70;;
28529;SDS011;15737;49.760;6.632;2023-06-26T11:08:45;0.80;;;0.60;;
28529;SDS011;15737;49.760;6.632;2023-06-26T11:14:17;0.40;;;0.40;;
28529;SDS011;15737;49.760;6.632;2023-06-26T11:16:43;0.93;;;0.80;;
28529;SDS011;15737;49.760;6.632;2023-06-26T11:19:09;1.17;;;0.60;;
28529;SDS011;15737;49.760;6.632;2023-06-26T11:21:37;0.75;;;0.75;;
28529;SDS011;15737;49.760;6.632;2023-06-26T11:24:04;0.65;;;0.60;;
28529;SDS011;15737;49.760;6.632;2023-06-26T11:26:31;0.90;;;0.90;;
28529;SDS011;15737;49.760;6.632;2023-06-26T11:29:03;1.38;;;0.95;;
28529;SDS011;15737;49.760;6.632;2023-06-26T11:31:33;1.02;;;0.70;;
28529;SDS011;15737;49.760;6.632;2023-06-26T11:34:01;0.60;;;0.60;;
28529;SDS011;15737;49.760;6.632;2023-06-26T11:36:37;1.50;;;0.90;;
28529;SDS011;15737;49.760;6.632;2023-06-26T11:39:07;1.58;;;1.10;;
28529;SDS011;15737;49.760;6.632;2023-06-26T11:41:37;1.50;;;1.13;;
28529;SDS011;15737;49.760;6.632;2023-06-26T11:44:07;2.58;;;0.88;;
28529;SDS011;15737;49.760;6.632;2023-06-26T11:46:34;0.82;;;0.50;;
28529;SDS011;15737;49.760;6.632;2023-06-26T11:49:04;0.45;;;0.45;;
28529;SDS011;15737;49.760;6.632;2023-06-26T11:51:30;0.30;;;0.30;;
28529;SDS011;15737;49.760;6.632;2023-06-26T11:53:55;0.82;;;0.82;;
28529;SDS011;15737;49.760;6.632;2023-06-26T11:56:21;0.70;;;0.70;;
28529;SDS011;15737;49.760;6.632;2023-06-26T11:59:04;1.20;;;0.60;;
28529;SDS011;15737;49.760;6.632;2023-06-26T12:01:33;1.40;;;0.75;;
28529;SDS011;15737;49.760;6.632;2023-06-26T12:04:00;0.45;;;0.45;;
28529;SDS011;15737;49.760;6.632;2023-06-26T12:06:31;1.52;;;0.60;;
28529;SDS011;15737;49.760;6.632;2023-06-26T12:09:02;1.48;;;0.60;;
28529;SDS011;15737;49.760;6.632;2023-06-26T12:11:30;3.90;;;0.70;;
28529;SDS011;15737;49.760;6.632;2023-06-26T12:13:57;1.15;;;0.63;;
28529;SDS011;15737;49.760;6.632;2023-06-26T12:16:23;1.52;;;0.68;;
28529;SDS011;15737;49.760;6.632;2023-06-26T12:18:48;0.70;;;0.70;;
28529;SDS011;15737;49.760;6.632;2023-06-26T12:23:59;0.60;;;0.50;;
28529;SDS011;15737;49.760;6.632;2023-06-26T12:26:25;0.85;;;0.85;;
28529;SDS011;15737;49.760;6.632;2023-06-26T12:28:52;0.98;;;0.80;;
28529;SDS011;15737;49.760;6.632;2023-06-26T12:31:20;0.80;;;0.80;;
28529;SDS011;15737;49.760;6.632;2023-06-26T12:33:47;0.50;;;0.50;;
28529;SDS011;15737;49.760;6.632;2023-06-26T12:36:13;0.70;;;0.70;;
28529;SDS011;15737;49.760;6.632;2023-06-26T12:38:39;0.70;;;0.70;;
28529;SDS011;15737;49.760;6.632;2023-06-26T12:41:12;1.20;;;0.70;;
28529;SDS011;15737;49.760;6.632;2023-06-26T12:43:46;0.70;;;0.63;;
28529;SDS011;15737;49.760;6.632;2023-06-26T12:46:11;1.65;;;0.65;;
28529;SDS011;15737;49.760;6.632;2023-06-26T12:48:38;1.08;;;0.60;;
28529;SDS011;15737;49.760;6.632;2023-06-26T12:51:11;0.77;;;0.77;;
28529;SDS011;15737;49.760;6.632;2023-06-26T12:53:38;0.77;;;0.70;;
28529;SDS011;15737;49.760;6.632;2023-06-26T12:56:09;0.40;;;0.40;;
28529;SDS011;15737;49.760;6.632;2023-06-26T12:58:41;0.98;;;0.60;;
28529;SDS011;15737;49.760;6.632;2023-06-26T13:01:07;0.77;;;0.77;;
28529;SDS011;15737;49.760;6.632;2023-06-26T13:03:38;1.45;;;0.75;;
28529;SDS011;15737;49.760;6.632;2023-06-26T13:06:04;1.70;;;0.60;;
28529;SDS011;15737;49.760;6.632;2023-06-26T13:08:30;1.33;;;0.73;;
28529;SDS011;15737;49.760;6.632;2023-06-26T13:10:55;2.83;;;0.80;;
28529;SDS011;15737;49.760;6.632;2023-06-26T13:13:20;3.22;;;0.75;;
28529;SDS011;15737;49.760;6.632;2023-06-26T13:15:47;0.65;;;0.60;;
28529;SDS011;15737;49.760;6.632;2023-06-26T13:18:12;0.80;;;0.75;;
28529;SDS011;15737;49.760;6.632;2023-06-26T13:20:37;0.75;;;0.60;;
28529;SDS011;15737;49.760;6.632;2023-06-26T13:23:03;0.68;;;0.68;;
28529;SDS011;15737;49.760;6.632;2023-06-26T13:25:29;0.95;;;0.70;;
28529;SDS011;15737;49.760;6.632;2023-06-26T13:27:54;0.52;;;0.50;;
28529;SDS011;15737;49.760;6.632;2023-06-26T13:30:21;0.70;;;0.70;;
28529;SDS011;15737;49.760;6.632;2023-06-26T13:32:46;1.35;;;0.77;;
28529;SDS011;15737;49.760;6.632;2023-06-26T13:35:12;1.75;;;0.68;;
28529;SDS011;15737;49.760;6.632;2023-06-26T13:37:38;1.85;;;0.80;;
28529;SDS011;15737;49.760;6.632;2023-06-26T13:40:05;0.65;;;0.60;;
28529;SDS011;15737;49.760;6.632;2023-06-26T13:42:32;2.03;;;0.80;;
28529;SDS011;15737;49.760;6.632;2023-06-26T13:44:57;0.98;;;0.63;;
28529;SDS011;15737;49.760;6.632;2023-06-26T13:47:23;0.50;;;0.50;;
28529;SDS011;15737;49.760;6.632;2023-06-26T13:49:48;0.70;;;0.70;;
28529;SDS011;15737;49.760;6.632;2023-06-26T13:52:14;1.48;;;0.70;;
28529;SDS011;15737;49.760;6.632;2023-06-26T13:54:39;1.33;;;0.95;;
28529;SDS011;15737;49.760;6.632;2023-06-26T13:57:06;0.70;;;0.55;;
28529;SDS011;15737;49.760;6.632;2023-06-26T13:59:32;0.93;;;0.90;;
28529;SDS011;15737;49.760;6.632;2023-06-26T14:01:58;0.73;;;0.70;;
28529;SDS011;15737;49.760;6.632;2023-06-26T14:04:24;1.05;;;0.85;;
28529;SDS011;15737;49.760;6.632;2023-06-26T14:06:50;2.83;;;0.50;;
28529;SDS011;15737;49.760;6.632;2023-06-26T14:09:17;1.20;;;0.95;;
28529;SDS011;15737;49.760;6.632;2023-06-26T14:11:43;0.85;;;0.70;;
28529;SDS011;15737;49.760;6.632;2023-06-26T14:14:09;0.60;;;0.60;;
28529;SDS011;15737;49.760;6.632;2023-06-26T14:16:35;0.70;;;0.70;;
28529;SDS011;15737;49.760;6.632;2023-06-26T14:19:00;1.40;;;0.77;;
28529;SDS011;15737;49.760;6.632;2023-06-26T14:21:27;1.55;;;1.00;;
28529;SDS011;15737;49.760;6.632;2023-06-26T14:23:53;1.10;;;1.00;;
28529;SDS011;15737;49.760;6.632;2023-06-26T14:28:52;0.95;;;0.88;;
28529;SDS011;15737;49.760;6.632;2023-06-26T14:31:17;0.82;;;0.60;;
28529;SDS011;15737;49.760;6.632;2023-06-26T14:33:43;2.55;;;0.93;;
28529;SDS011;15737;49.760;6.632;2023-06-26T14:36:08;0.60;;;0.60;;
28529;SDS011;15737;49.760;6.632;2023-06-26T14:38:37;1.45;;;0.80;;
28529;SDS011;15737;49.760;6.632;2023-06-26T14:41:17;1.27;;;0.60;;
28529;SDS011;15737;49.760;6.632;2023-06-26T14:43:43;0.70;;;0.70;;
28529;SDS011;15737;49.760;6.632;2023-06-26T14:46:21;0.73;;;0.73;;
28529;SDS011;15737;49.760;6.632;2023-06-26T14:48:49;1.60;;;0.70;;
28529;SDS011;15737;49.760;6.632;2023-06-26T14:51:16;1.20;;;0.77;;
28529;SDS011;15737;49.760;6.632;2023-06-26T14:53:41;1.27;;;0.63;;
28529;SDS011;15737;49.760;6.632;2023-06-26T14:56:07;2.63;;;0.77;;
28529;SDS011;15737;49.760;6.632;2023-06-26T14:58:33;1.58;;;0.70;;
28529;SDS011;15737;49.760;6.632;2023-06-26T15:00:58;0.95;;;0.70;;
28529;SDS011;15737;49.760;6.632;2023-06-26T15:03:24;0.40;;;0.40;;
28529;SDS011;15737;49.760;6.632;2023-06-26T15:05:50;0.55;;;0.47;;
28529;SDS011;15737;49.760;6.632;2023-06-26T15:08:15;1.52;;;0.88;;
28529;SDS011;15737;49.760;6.632;2023-06-26T15:10:41;0.57;;;0.57;;
28529;SDS011;15737;49.760;6.632;2023-06-26T15:13:06;0.75;;;0.68;;
28529;SDS011;15737;49.760;6.632;2023-06-26T15:15:32;0.60;;;0.60;;
28529;SDS011;15737;49.760;6.632;2023-06-26T15:17:58;0.70;;;0.70;;
28529;SDS011;15737;49.760;6.632;2023-06-26T15:20:24;0.60;;;0.60;;
28529;SDS011;15737;49.760;6.632;2023-06-26T15:22:50;0.30;;;0.22;;
28529;SDS011;15737;49.760;6.632;2023-06-26T15:25:15;0.68;;;0.60;;
28529;SDS011;15737;49.760;6.632;2023-06-26T15:27:41;0.50;;;0.50;;
28529;SDS011;15737;49.760;6.632;2023-06-26T15:30:07;2.17;;;0.77;;
28529;SDS011;15737;49.760;6.632;2023-06-26T15:32:33;3.13;;;0.70;;
28529;SDS011;15737;49.760;6.632;2023-06-26T15:34:58;0.68;;;0.60;;
28529;SDS011;15737;49.760;6.632;2023-06-26T15:37:24;1.00;;;0.95;;